createdAt,value
2023-02-21T00:00:35.663Z,5.67
2023-02-21T00:03:20.854Z,4.80
2023-02-21T00:06:08.306Z,6.27
2023-02-21T00:08:53.487Z,4.97
2023-02-21T00:11:39.977Z,3.47
2023-02-21T00:14:25.333Z,2.83
2023-02-21T00:17:10.876Z,5.07
2023-02-21T00:19:56.082Z,4.57
2023-02-21T00:22:41.361Z,7.00
2023-02-21T00:25:26.543Z,5.10
2023-02-21T00:28:13.152Z,4.90
2023-02-21T00:30:58.546Z,3.53
2023-02-21T00:33:43.781Z,4.57
2023-02-21T00:36:34.893Z,3.20
2023-02-21T00:39:20.232Z,3.23
2023-02-21T00:42:05.698Z,4.20
2023-02-21T00:44:52.414Z,4.53
2023-02-21T00:47:37.856Z,5.40
2023-02-21T00:50:25.824Z,3.43
2023-02-21T00:53:11.358Z,2.93
2023-02-21T00:55:56.739Z,4.73
2023-02-21T00:58:42.329Z,3.20
2023-02-21T01:01:28.994Z,4.17
2023-02-21T01:04:16.828Z,3.97
2023-02-21T01:07:01.896Z,2.80
2023-02-21T01:09:47.110Z,2.40
2023-02-21T01:12:32.893Z,3.27
2023-02-21T01:15:18.076Z,2.30
2023-02-21T01:18:04.671Z,4.97
2023-02-21T01:20:49.887Z,6.43
2023-02-21T01:23:35.265Z,4.10
2023-02-21T01:26:21.790Z,5.13
2023-02-21T01:29:09.607Z,4.40
2023-02-21T01:31:55.070Z,4.73
2023-02-21T01:34:41.440Z,5.50
2023-02-21T01:37:26.689Z,4.27
2023-02-21T01:40:14.319Z,5.00
2023-02-21T01:43:00.715Z,4.87
2023-02-21T01:46:06.885Z,4.13
2023-02-21T01:48:54.065Z,5.73
2023-02-21T01:51:49.441Z,3.90
2023-02-21T01:54:36.288Z,6.87
2023-02-21T01:57:24.374Z,3.77
2023-02-21T02:00:12.097Z,3.27
2023-02-21T02:03:09.429Z,4.63
2023-02-21T02:05:57.338Z,4.03
2023-02-21T02:08:46.690Z,4.50
2023-02-21T02:11:53.616Z,4.27
2023-02-21T02:14:41.303Z,3.50
2023-02-21T02:17:16.830Z,4.70
2023-02-21T02:20:31.115Z,3.43
2023-02-21T02:23:30.874Z,2.93
2023-02-21T02:26:29.066Z,5.53
2023-02-21T02:29:20.056Z,3.23
2023-02-21T02:32:11.031Z,2.90
2023-02-21T02:34:52.313Z,4.97
2023-02-21T02:37:24.870Z,4.47
2023-02-21T02:40:04.047Z,5.30
2023-02-21T02:42:53.147Z,4.27
2023-02-21T02:45:26.848Z,7.97
2023-02-21T02:47:59.420Z,4.00
2023-02-21T02:50:33.630Z,3.50
2023-02-21T02:53:04.061Z,3.77
2023-02-21T02:55:40.547Z,5.73
2023-02-21T02:58:11.055Z,3.13
2023-02-21T03:00:43.100Z,4.23
2023-02-21T03:03:31.695Z,3.70
2023-02-21T03:06:18.366Z,4.87
2023-02-21T03:08:53.796Z,6.53
2023-02-21T03:11:23.617Z,2.80
2023-02-21T03:13:55.854Z,4.10
2023-02-21T03:16:27.670Z,3.97
2023-02-21T03:19:00.859Z,6.00
2023-02-21T03:21:35.838Z,3.23
2023-02-21T03:24:06.954Z,3.27
2023-02-21T03:26:37.900Z,3.67
2023-02-21T03:29:32.588Z,4.10
2023-02-21T03:32:10.686Z,2.87
2023-02-21T03:34:39.336Z,4.90
2023-02-21T03:37:21.948Z,4.83
2023-02-21T03:39:52.800Z,4.57
2023-02-21T03:42:20.834Z,4.33
2023-02-21T03:44:48.746Z,3.20
2023-02-21T03:47:17.913Z,5.57
2023-02-21T03:49:45.766Z,4.80
2023-02-21T03:52:15.536Z,4.30
2023-02-21T03:54:44.067Z,5.20
2023-02-21T03:57:16.656Z,4.23
2023-02-21T03:59:47.745Z,3.63
2023-02-21T04:02:16.493Z,3.70
2023-02-21T04:04:44.668Z,5.63
2023-02-21T04:07:18.584Z,4.70
2023-02-21T04:09:47.275Z,6.37
2023-02-21T04:12:19.899Z,6.00
2023-02-21T04:14:47.801Z,4.20
2023-02-21T04:17:16.184Z,5.43
2023-02-21T04:19:45.969Z,3.43
2023-02-21T04:22:13.721Z,4.90
2023-02-21T04:24:44.889Z,3.93
2023-02-21T04:27:14.532Z,3.30
2023-02-21T04:29:46.753Z,6.10
2023-02-21T04:32:14.937Z,5.37
2023-02-21T04:34:42.818Z,5.00
2023-02-21T04:37:10.774Z,3.60
2023-02-21T04:39:38.689Z,9.83
2023-02-21T04:42:07.929Z,7.93
2023-02-21T04:44:35.688Z,5.20
2023-02-21T04:47:05.921Z,5.23
2023-02-21T04:49:33.657Z,3.67
2023-02-21T04:52:01.411Z,6.20
2023-02-21T04:54:29.196Z,6.03
2023-02-21T04:56:57.009Z,6.23
2023-02-21T04:59:28.572Z,9.20
2023-02-21T05:01:56.337Z,8.23
2023-02-21T05:04:24.078Z,4.23
2023-02-21T05:06:51.858Z,5.30
2023-02-21T05:09:19.601Z,10.07
2023-02-21T05:11:47.305Z,5.07
2023-02-21T05:14:15.041Z,9.50
2023-02-21T05:16:44.598Z,6.27
2023-02-21T05:19:12.456Z,6.83
2023-02-21T05:21:40.192Z,5.47
2023-02-21T05:24:08.255Z,8.03
2023-02-21T05:26:38.583Z,6.73
2023-02-21T05:29:06.544Z,8.07
2023-02-21T05:31:34.954Z,6.33
2023-02-21T05:34:04.151Z,7.63
2023-02-21T05:36:31.891Z,6.57
2023-02-21T05:38:59.677Z,4.90
2023-02-21T05:41:27.476Z,6.50
2023-02-21T05:43:55.282Z,7.17
2023-02-21T05:46:25.806Z,9.47
2023-02-21T05:48:54.408Z,6.20
2023-02-21T05:51:23.805Z,6.43
2023-02-21T05:53:52.649Z,9.63
2023-02-21T05:56:22.103Z,8.03
2023-02-21T05:58:51.029Z,6.70
2023-02-21T06:01:18.887Z,5.10
2023-02-21T06:03:46.812Z,11.63
2023-02-21T06:06:16.234Z,8.07
2023-02-21T06:08:47.558Z,8.40
2023-02-21T06:11:16.324Z,7.57
2023-02-21T06:13:44.224Z,6.73
2023-02-21T06:16:12.111Z,10.60
2023-02-21T06:18:39.866Z,8.60
2023-02-21T06:21:07.760Z,5.63
2023-02-21T06:23:35.458Z,6.77
2023-02-21T06:26:04.678Z,5.83
2023-02-21T06:28:32.538Z,7.83
2023-02-21T06:31:01.005Z,8.23
2023-02-21T06:33:29.118Z,9.57
2023-02-21T06:35:57.135Z,8.10
2023-02-21T06:38:24.868Z,8.90
2023-02-21T06:40:54.765Z,6.20
2023-02-21T06:43:23.929Z,6.87
2023-02-21T06:45:51.990Z,8.07
2023-02-21T06:48:19.854Z,9.63
2023-02-21T06:50:47.663Z,10.67
2023-02-21T06:53:15.624Z,8.87
2023-02-21T06:55:43.565Z,9.73
2023-02-21T06:58:11.787Z,11.63
2023-02-21T07:00:40.872Z,7.60
2023-02-21T07:03:08.637Z,8.83
2023-02-21T07:05:38.412Z,7.00
2023-02-21T07:08:06.327Z,7.10
2023-02-21T07:10:34.044Z,7.10
2023-02-21T07:13:01.860Z,7.87
2023-02-21T07:15:29.582Z,7.17
2023-02-21T07:17:58.745Z,10.33
2023-02-21T07:20:28.810Z,7.80
2023-02-21T07:22:56.633Z,8.37
2023-02-21T07:25:24.710Z,9.70
2023-02-21T07:27:54.270Z,6.13
2023-02-21T07:30:22.330Z,6.60
2023-02-21T07:32:50.122Z,8.80
2023-02-21T07:35:19.474Z,9.23
2023-02-21T07:37:47.625Z,5.70
2023-02-21T07:40:15.413Z,7.63
2023-02-21T07:42:44.866Z,10.03
2023-02-21T07:45:13.641Z,10.50
2023-02-21T07:47:41.571Z,9.33
2023-02-21T07:50:09.869Z,9.07
2023-02-21T07:52:39.260Z,13.17
2023-02-21T07:55:07.748Z,7.80
2023-02-21T07:57:35.654Z,11.37
2023-02-21T08:00:04.446Z,10.00
2023-02-21T08:02:40.675Z,9.73
2023-02-21T08:05:09.592Z,7.97
2023-02-21T08:07:38.880Z,9.17
2023-02-21T08:10:07.446Z,10.90
2023-02-21T08:12:35.344Z,9.60
2023-02-21T08:15:03.246Z,6.27
2023-02-21T08:17:31.001Z,10.00
2023-02-21T08:20:01.005Z,10.27
2023-02-21T08:22:28.832Z,6.93
2023-02-21T08:24:57.885Z,11.53
2023-02-21T08:27:25.656Z,8.63
2023-02-21T08:29:55.549Z,5.73
2023-02-21T08:32:23.504Z,8.63
2023-02-21T08:34:51.668Z,5.93
2023-02-21T08:37:20.140Z,5.90
2023-02-21T08:39:49.737Z,8.73
2023-02-21T08:42:21.147Z,7.93
2023-02-21T08:44:49.579Z,7.80
2023-02-21T08:47:19.107Z,5.17
2023-02-21T08:49:48.243Z,7.23
2023-02-21T08:52:23.908Z,11.90
2023-02-21T08:54:52.694Z,5.93
2023-02-21T08:57:22.800Z,5.93
2023-02-21T08:59:51.262Z,11.27
2023-02-21T09:02:22.471Z,6.33
2023-02-21T09:04:51.297Z,10.37
2023-02-21T09:07:22.835Z,7.53
2023-02-21T09:09:51.877Z,6.67
2023-02-21T09:12:20.753Z,5.70
2023-02-21T09:14:50.751Z,6.37
2023-02-21T09:17:19.499Z,8.83
2023-02-21T09:19:48.988Z,10.10
2023-02-21T09:22:18.445Z,10.87
2023-02-21T09:24:47.743Z,6.23
2023-02-21T09:27:17.913Z,10.23
2023-02-21T09:29:47.657Z,8.37
2023-02-21T09:32:18.398Z,9.70
2023-02-21T09:34:46.840Z,10.63
2023-02-21T09:37:14.686Z,8.63
2023-02-21T09:39:43.330Z,8.90
2023-02-21T09:42:15.649Z,6.33
2023-02-21T09:44:48.629Z,8.37
2023-02-21T09:47:24.387Z,6.80
2023-02-21T09:49:59.547Z,8.87
2023-02-21T09:52:33.619Z,8.60
2023-02-21T09:55:09.355Z,9.73
2023-02-21T09:57:38.290Z,8.20
2023-02-21T10:00:19.104Z,6.90
2023-02-21T10:03:00.432Z,12.80
2023-02-21T10:05:40.378Z,5.23
2023-02-21T10:08:17.458Z,8.77
2023-02-21T10:10:48.288Z,7.20
2023-02-21T10:13:34.381Z,7.27
2023-02-21T10:16:12.137Z,8.60
2023-02-21T10:18:49.887Z,5.37
2023-02-21T10:21:26.560Z,5.73
2023-02-21T10:23:57.990Z,9.30
2023-02-21T10:26:30.262Z,6.70
2023-02-21T10:28:58.167Z,7.00
2023-02-21T10:31:36.362Z,9.03
2023-02-21T10:34:08.368Z,6.17
2023-02-21T10:36:36.486Z,7.50
2023-02-21T10:39:08.306Z,6.63
2023-02-21T10:41:41.305Z,7.33
2023-02-21T10:44:15.060Z,6.73
2023-02-21T10:46:47.974Z,4.50
2023-02-21T10:49:24.909Z,2.63
2023-02-21T10:52:07.277Z,6.97
2023-02-21T10:54:36.421Z,7.83
2023-02-21T10:57:08.417Z,8.13
2023-02-21T10:59:41.246Z,5.60
2023-02-21T11:02:27.316Z,4.10
2023-02-21T11:05:08.220Z,5.73
2023-02-21T11:07:40.580Z,7.47
2023-02-21T11:10:33.623Z,6.38
2023-02-21T11:13:16.382Z,8.57
2023-02-21T11:15:45.375Z,4.93
2023-02-21T11:18:17.884Z,6.18
2023-02-21T11:20:48.524Z,4.33
2023-02-21T11:23:26.099Z,5.68
2023-02-21T11:26:01.097Z,6.97
2023-02-21T11:28:30.478Z,3.95
2023-02-21T11:31:18.504Z,4.53
2023-02-21T11:33:54.318Z,4.35
2023-02-21T11:36:29.711Z,3.30
2023-02-21T11:39:08.154Z,5.43
2023-02-21T11:41:47.697Z,5.68
2023-02-21T11:44:28.296Z,4.28
2023-02-21T11:47:08.570Z,4.13
2023-02-21T11:49:50.518Z,4.50
2023-02-21T11:52:25.558Z,4.00
2023-02-21T11:54:53.340Z,4.68
2023-02-21T11:57:28.977Z,4.72
2023-02-21T12:00:08.329Z,2.88
2023-02-21T12:02:53.841Z,6.43
2023-02-21T12:05:43.391Z,4.25
2023-02-21T12:08:35.128Z,3.60
2023-02-21T12:11:14.466Z,3.08
2023-02-21T12:13:50.810Z,4.55
2023-02-21T12:16:35.830Z,3.20
2023-02-21T12:19:21.032Z,4.82
2023-02-21T12:22:03.208Z,5.28
2023-02-21T12:24:50.017Z,5.10
2023-02-21T12:27:24.014Z,2.58
2023-02-21T12:30:08.085Z,2.80
2023-02-21T12:32:50.315Z,2.45
2023-02-21T12:35:51.346Z,3.20
2023-02-21T12:38:27.011Z,3.17
2023-02-21T12:41:03.618Z,2.03
2023-02-21T12:43:47.654Z,4.22
2023-02-21T12:46:23.490Z,4.55
2023-02-21T12:48:59.173Z,3.42
2023-02-21T12:51:33.558Z,1.70
2023-02-21T12:54:04.504Z,2.70
2023-02-21T12:56:41.156Z,2.38
2023-02-21T12:59:16.498Z,4.35
2023-02-21T13:01:48.294Z,3.60
2023-02-21T13:04:23.686Z,2.22
2023-02-21T13:06:56.124Z,4.22
2023-02-21T13:09:33.648Z,2.85
2023-02-21T13:12:10.140Z,3.00
2023-02-21T13:14:43.239Z,2.85
2023-02-21T13:17:16.883Z,5.00
2023-02-21T13:19:48.804Z,5.40
2023-02-21T13:23:11.643Z,1.90
2023-02-21T13:26:19.521Z,5.47
2023-02-21T13:28:53.263Z,5.65
2023-02-21T13:31:24.370Z,2.55
2023-02-21T13:33:53.832Z,4.70
2023-02-21T13:36:26.836Z,2.88
2023-02-21T13:39:11.099Z,2.47
2023-02-21T13:41:44.460Z,2.45
2023-02-21T13:44:20.789Z,2.17
2023-02-21T13:47:13.876Z,3.25
2023-02-21T13:49:53.124Z,2.28
2023-02-21T13:52:59.363Z,3.03
2023-02-21T13:55:36.179Z,2.75
2023-02-21T13:58:32.412Z,1.63
2023-02-21T14:01:23.536Z,2.17
2023-02-21T14:03:54.152Z,2.20
2023-02-21T14:06:55.333Z,3.05
2023-02-21T14:09:23.823Z,4.05
2023-02-21T14:11:54.133Z,5.38
2023-02-21T14:14:32.120Z,3.13
2023-02-21T14:17:04.004Z,2.05
2023-02-21T14:19:42.078Z,1.45
2023-02-21T14:22:16.521Z,1.52
2023-02-21T14:24:48.205Z,2.75
2023-02-21T14:27:35.090Z,6.10
2023-02-21T14:30:38.435Z,1.20
2023-02-21T14:33:22.229Z,3.05
2023-02-21T14:35:59.311Z,1.23
2023-02-21T14:38:30.762Z,2.90
2023-02-21T14:41:09.365Z,3.13
2023-02-21T14:43:58.988Z,2.95
2023-02-21T14:47:12.655Z,2.17
2023-02-21T14:50:09.780Z,4.03
2023-02-21T14:52:57.408Z,3.05
2023-02-21T14:55:44.978Z,3.47
2023-02-21T14:58:51.120Z,2.03
2023-02-21T15:01:39.161Z,3.15
2023-02-21T15:04:16.672Z,4.38
2023-02-21T15:07:10.292Z,2.38
2023-02-21T15:09:39.884Z,4.50
2023-02-21T15:12:16.279Z,2.03
2023-02-21T15:14:52.150Z,2.88
2023-02-21T15:17:23.236Z,6.55
2023-02-21T15:20:06.378Z,2.33
2023-02-21T15:22:37.758Z,3.47
2023-02-21T15:25:21.467Z,4.53
2023-02-21T15:28:01.510Z,4.20
2023-02-21T15:30:35.173Z,4.70
2023-02-21T15:33:08.702Z,3.15
2023-02-21T15:35:40.393Z,3.38
2023-02-21T15:38:17.864Z,4.18
2023-02-21T15:40:46.588Z,5.97
2023-02-21T15:43:32.319Z,3.58
2023-02-21T15:46:02.973Z,5.13
2023-02-21T15:48:31.060Z,1.77
2023-02-21T15:51:03.422Z,3.22
2023-02-21T15:53:37.161Z,3.95
2023-02-21T15:56:22.125Z,4.18
2023-02-21T15:59:18.091Z,2.20
2023-02-21T16:01:47.398Z,2.08
2023-02-21T16:04:18.170Z,2.50
2023-02-21T16:06:50.363Z,2.08
2023-02-21T16:09:25.906Z,3.50
2023-02-21T16:11:57.942Z,3.55
2023-02-21T16:14:31.987Z,1.92
2023-02-21T16:17:21.751Z,2.63
2023-02-21T16:19:56.213Z,4.05
2023-02-21T16:22:43.053Z,3.50
2023-02-21T16:25:25.674Z,3.47
2023-02-21T16:28:00.569Z,3.63
2023-02-21T16:30:36.164Z,5.28
2023-02-21T16:33:06.870Z,3.92
2023-02-21T16:35:35.327Z,4.15
2023-02-21T16:38:03.386Z,5.20
2023-02-21T16:40:35.812Z,7.47
2023-02-21T16:43:06.460Z,5.80
2023-02-21T16:45:37.252Z,5.63
2023-02-21T16:48:09.112Z,4.70
2023-02-21T16:50:40.046Z,6.85
2023-02-21T16:53:13.631Z,4.78
2023-02-21T16:55:44.110Z,4.53
2023-02-21T16:58:25.055Z,4.55
2023-02-21T17:00:58.193Z,5.03
2023-02-21T17:03:28.633Z,10.90
2023-02-21T17:05:59.417Z,7.32
2023-02-21T17:08:28.636Z,4.00
2023-02-21T17:11:01.343Z,4.83
2023-02-21T17:13:29.732Z,2.40
2023-02-21T17:15:58.386Z,2.60
2023-02-21T17:18:29.758Z,2.77
2023-02-21T17:20:58.487Z,2.63
2023-02-21T17:23:27.569Z,3.93
2023-02-21T17:25:55.528Z,5.30
2023-02-21T17:28:26.048Z,5.27
2023-02-21T17:30:54.884Z,6.87
2023-02-21T17:33:23.775Z,4.33
2023-02-21T17:35:54.731Z,10.10
2023-02-21T17:38:23.281Z,5.33
2023-02-21T17:40:53.639Z,4.33
2023-02-21T17:43:21.885Z,5.77
2023-02-21T17:45:57.838Z,4.37
2023-02-21T17:48:27.246Z,3.73
2023-02-21T17:50:55.103Z,4.97
2023-02-21T17:53:23.511Z,6.07
2023-02-21T17:55:51.319Z,6.13
2023-02-21T17:58:19.247Z,4.30
2023-02-21T18:00:47.060Z,6.37
2023-02-21T18:03:16.135Z,7.37
2023-02-21T18:05:43.912Z,5.23
2023-02-21T18:08:15.547Z,6.87
2023-02-21T18:10:46.063Z,6.77
2023-02-21T18:13:14.083Z,7.43
2023-02-21T18:15:41.904Z,5.83
2023-02-21T18:18:09.687Z,4.73
2023-02-21T18:20:39.396Z,4.67
2023-02-21T18:23:07.422Z,9.23
2023-02-21T18:25:36.001Z,4.73
2023-02-21T18:28:04.441Z,3.97
2023-02-21T18:30:32.277Z,4.50
2023-02-21T18:33:00.045Z,3.23
2023-02-21T18:35:28.482Z,5.73
2023-02-21T18:37:57.566Z,4.03
2023-02-21T18:41:35.640Z,3.37
2023-02-21T18:44:03.444Z,7.83
2023-02-21T18:46:31.271Z,7.80
2023-02-21T18:48:59.032Z,10.93
2023-02-21T18:51:26.790Z,9.27
2023-02-21T18:53:55.899Z,10.03
2023-02-21T18:56:23.693Z,8.17
2023-02-21T18:58:51.916Z,7.90
2023-02-21T19:01:21.750Z,6.73
2023-02-21T19:03:51.213Z,8.93
2023-02-21T19:06:21.189Z,7.03
2023-02-21T19:08:50.384Z,5.80
2023-02-21T19:11:19.550Z,8.87
2023-02-21T19:13:49.912Z,9.30
2023-02-21T19:16:19.613Z,6.60
2023-02-21T19:18:50.395Z,7.97
2023-02-21T19:21:18.553Z,7.30
2023-02-21T19:23:46.454Z,7.97
2023-02-21T19:26:14.225Z,5.43
2023-02-21T19:28:43.353Z,10.53
2023-02-21T19:31:14.319Z,9.70
2023-02-21T19:33:42.303Z,14.13
2023-02-21T19:36:13.134Z,6.77
2023-02-21T19:38:41.078Z,6.37
2023-02-21T19:41:09.652Z,11.03
2023-02-21T19:43:37.526Z,11.87
2023-02-21T19:46:07.144Z,11.63
2023-02-21T19:48:34.959Z,9.50
2023-02-21T19:51:02.814Z,11.63
2023-02-21T19:53:30.532Z,12.47
2023-02-21T19:55:58.300Z,9.80
2023-02-21T19:58:28.412Z,10.30
2023-02-21T20:00:56.189Z,7.73
2023-02-21T20:03:25.604Z,7.13
2023-02-21T20:05:53.956Z,8.23
2023-02-21T20:08:21.805Z,6.70
2023-02-21T20:10:49.728Z,8.50
2023-02-21T20:13:17.466Z,6.73
2023-02-21T20:15:45.382Z,9.33
2023-02-21T20:18:14.527Z,6.27
2023-02-21T20:20:44.150Z,5.57
2023-02-21T20:23:12.610Z,7.83
2023-02-21T20:25:42.656Z,14.70
2023-02-21T20:28:10.525Z,8.73
2023-02-21T20:30:38.463Z,8.03
2023-02-21T20:33:08.729Z,9.00
2023-02-21T20:35:36.478Z,10.83
2023-02-21T20:38:06.082Z,8.60
2023-02-21T20:40:34.612Z,11.53
2023-02-21T20:43:03.033Z,11.90
2023-02-21T20:45:30.757Z,8.87
2023-02-21T20:47:58.597Z,6.97
2023-02-21T20:50:26.514Z,9.00
2023-02-21T20:52:54.571Z,7.50
2023-02-21T20:55:25.201Z,9.60
2023-02-21T20:57:55.560Z,8.70
2023-02-21T21:00:24.344Z,9.63
2023-02-21T21:02:52.824Z,7.23
2023-02-21T21:05:21.119Z,11.73
2023-02-21T21:07:48.896Z,9.17
2023-02-21T21:10:18.977Z,11.70
2023-02-21T21:12:49.573Z,14.00
2023-02-21T21:15:19.206Z,11.67
2023-02-21T21:17:48.144Z,8.50
2023-02-21T21:20:18.096Z,7.73
2023-02-21T21:22:46.351Z,8.60
2023-02-21T21:25:15.408Z,6.20
2023-02-21T21:27:44.284Z,13.20
2023-02-21T21:30:18.201Z,12.40
2023-02-21T21:32:46.559Z,11.80
2023-02-21T21:35:17.513Z,7.83
2023-02-21T21:37:45.619Z,13.70
2023-02-21T21:40:17.211Z,12.63
2023-02-21T21:42:46.800Z,9.87
2023-02-21T21:45:24.597Z,11.30
2023-02-21T21:47:54.324Z,7.27
2023-02-21T21:50:23.425Z,10.30
2023-02-21T21:52:53.651Z,7.00
2023-02-21T21:55:26.514Z,11.60
2023-02-21T21:57:54.865Z,10.07
2023-02-21T22:00:25.597Z,9.50
2023-02-21T22:02:57.209Z,10.20
2023-02-21T22:05:25.788Z,8.60
2023-02-21T22:07:54.181Z,6.73
2023-02-21T22:10:23.886Z,9.70
2023-02-21T22:12:53.046Z,10.10
2023-02-21T22:15:23.647Z,8.90
2023-02-21T22:17:53.162Z,8.80
2023-02-21T22:20:28.277Z,13.60
2023-02-21T22:22:58.636Z,9.10
2023-02-21T22:25:30.057Z,9.80
2023-02-21T22:27:58.901Z,19.33
2023-02-21T22:30:26.864Z,13.93
2023-02-21T22:32:56.039Z,16.57
2023-02-21T22:35:28.429Z,14.03
2023-02-21T22:37:58.736Z,12.90
2023-02-21T22:40:28.067Z,11.33
2023-02-21T22:42:59.339Z,10.83
2023-02-21T22:45:33.154Z,7.90
2023-02-21T22:48:03.988Z,9.97
2023-02-21T22:50:36.833Z,10.40
2023-02-21T22:53:07.876Z,12.20
2023-02-21T22:55:37.957Z,9.63
2023-02-21T22:58:07.558Z,7.63
2023-02-21T23:00:36.655Z,10.07
2023-02-21T23:03:12.724Z,10.13
2023-02-21T23:05:41.269Z,8.27
2023-02-21T23:08:09.106Z,10.47
2023-02-21T23:10:40.204Z,12.47
2023-02-21T23:13:14.177Z,6.77
2023-02-21T23:15:42.867Z,6.70
2023-02-21T23:18:18.034Z,9.70
2023-02-21T23:20:48.436Z,7.80
2023-02-21T23:23:16.386Z,9.03
2023-02-21T23:25:44.372Z,6.73
2023-02-21T23:28:14.839Z,8.87
2023-02-21T23:30:43.308Z,6.53
2023-02-21T23:33:15.023Z,7.63
2023-02-21T23:35:43.380Z,6.20
2023-02-21T23:38:15.608Z,5.13
2023-02-21T23:40:44.658Z,7.60
2023-02-21T23:43:14.078Z,9.27
2023-02-21T23:45:42.153Z,9.07
2023-02-21T23:48:15.676Z,9.13
2023-02-21T23:50:46.404Z,6.83
2023-02-21T23:53:16.079Z,8.63
2023-02-21T23:55:46.399Z,8.20
2023-02-21T23:58:17.545Z,9.67
